地図

経路データ

SID SEASON NUMBER BASIN SUBBASIN NAME ISO_TIME NATURE LAT LON WMO_WIND WMO_PRES WMO_AGENCY TRACK_TYPE DIST2LAND LANDFALL IFLAG USA_AGENCY USA_ATCF_ID USA_LAT USA_LON USA_RECORD USA_STATUS USA_WIND USA_PRES USA_SSHS USA_R34_NE USA_R34_SE USA_R34_SW USA_R34_NW USA_R50_NE USA_R50_SE USA_R50_SW USA_R50_NW USA_R64_NE USA_R64_SE USA_R64_SW USA_R64_NW USA_POCI USA_ROCI USA_RMW USA_EYE TOKYO_LAT TOKYO_LON TOKYO_GRADE TOKYO_WIND TOKYO_PRES TOKYO_R50_DIR TOKYO_R50_LONG TOKYO_R50_SHORT TOKYO_R30_DIR TOKYO_R30_LONG TOKYO_R30_SHORT TOKYO_LAND CMA_LAT CMA_LON CMA_CAT CMA_WIND CMA_PRES HKO_LAT HKO_LON HKO_CAT HKO_WIND HKO_PRES NEWDELHI_LAT NEWDELHI_LON NEWDELHI_GRADE NEWDELHI_WIND NEWDELHI_PRES NEWDELHI_CI NEWDELHI_DP NEWDELHI_POCI REUNION_LAT REUNION_LON REUNION_TYPE REUNION_WIND REUNION_PRES REUNION_TNUM REUNION_CI REUNION_RMW REUNION_R34_NE REUNION_R34_SE REUNION_R34_SW REUNION_R34_NW REUNION_R50_NE REUNION_R50_SE REUNION_R50_SW REUNION_R50_NW REUNION_R64_NE REUNION_R64_SE REUNION_R64_SW REUNION_R64_NW BOM_LAT BOM_LON BOM_TYPE BOM_WIND BOM_PRES BOM_TNUM BOM_CI BOM_RMW BOM_R34_NE BOM_R34_SE BOM_R34_SW BOM_R34_NW BOM_R50_NE BOM_R50_SE BOM_R50_SW BOM_R50_NW BOM_R64_NE BOM_R64_SE BOM_R64_SW BOM_R64_NW BOM_ROCI BOM_POCI BOM_EYE BOM_POS_METHOD BOM_PRES_METHOD NADI_LAT NADI_LON NADI_CAT NADI_WIND NADI_PRES WELLINGTON_LAT WELLINGTON_LON WELLINGTON_WIND WELLINGTON_PRES DS824_LAT DS824_LON DS824_STAGE DS824_WIND DS824_PRES TD9636_LAT TD9636_LON TD9636_STAGE TD9636_WIND TD9636_PRES TD9635_LAT TD9635_LON TD9635_WIND TD9635_PRES TD9635_ROCI NEUMANN_LAT NEUMANN_LON NEUMANN_CLASS NEUMANN_WIND NEUMANN_PRES MLC_LAT MLC_LON MLC_CLASS MLC_WIND MLC_PRES USA_GUST BOM_GUST BOM_GUST_PER REUNION_GUST REUNION_GUST_PER USA_SEAHGT USA_SEARAD_NE USA_SEARAD_SE USA_SEARAD_SW USA_SEARAD_NW STORM_SPEED STORM_DIR
1941013S09200 1941 5 SP MM NOT_NAMED 1941-01-13 00:00:00 NR -8.60000 -160.200 main 1428 1428 __________O___ -1 -8.60000 -160.200 2 5 117
1941013S09200 1941 5 SP MM NOT_NAMED 1941-01-13 03:00:00 NR -8.70009 -159.995 main 1444 1444 __________P___ -1 -8.70009 -159.995 2 5 118
1941013S09200 1941 5 SP MM NOT_NAMED 1941-01-13 06:00:00 NR -8.81010 -159.792 main 1459 1459 __________P___ -1 -8.81010 -159.792 2 5 121
1941013S09200 1941 5 SP MM NOT_NAMED 1941-01-13 09:00:00 NR -8.94006 -159.593 main 1475 1471 __________P___ -1 -8.94006 -159.593 2 5 127
1941013S09200 1941 5 SP MM NOT_NAMED 1941-01-13 12:00:00 NR -9.10000 -159.400 main 1487 1487 __________O___ -1 -9.10000 -159.400 2 5 133
1941013S09200 1941 5 SP MM NOT_NAMED 1941-01-13 15:00:00 NR -9.29466 -159.214 main 1500 1496 __________P___ -1 -9.29466 -159.214 2 5 139
1941013S09200 1941 5 SP MM NOT_NAMED 1941-01-13 18:00:00 NR -9.50746 -159.035 main 1513 1509 __________P___ -1 -9.50746 -159.035 2 5 141
1941013S09200 1941 5 SP MM NOT_NAMED 1941-01-13 21:00:00 NR -9.71654 -158.864 main 1516 1516 __________P___ -1 -9.71654 -158.864 2 5 140
1941013S09200 1941 5 SP MM NOT_NAMED 1941-01-14 00:00:00 NR -9.90000 -158.700 main 1530 1530 __________O___ -1 -9.90000 -158.700 2 4 134
1941013S09200 1941 5 SP MM NOT_NAMED 1941-01-14 03:00:00 NR -10.0165 -158.543 main 1547 1544 __________P___ -1 -10.0165 -158.543 2 4 124
1941013S09200 1941 5 SP MM NOT_NAMED 1941-01-14 06:00:00 NR -10.1074 -158.392 main 1555 1555 __________P___ -1 -10.1074 -158.392 2 3 121
1941013S09200 1941 5 SP MM NOT_NAMED 1941-01-14 09:00:00 NR -10.1947 -158.246 main 1573 1570 __________P___ -1 -10.1947 -158.246 2 3 124
1941013S09200 1941 5 SP MM NOT_NAMED 1941-01-14 12:00:00 NR -10.3000 -158.100 main 1580 1580 __________O___ -1 -10.3000 -158.100 2 4 132
1941013S09200 1941 5 SP MM NOT_NAMED 1941-01-14 15:00:00 NR -10.4330 -157.974 main 1588 1585 __________P___ -1 -10.4330 -157.974 2 4 139
1941013S09200 1941 5 SP MM NOT_NAMED 1941-01-14 18:00:00 NR -10.5898 -157.845 main 1604 1601 __________P___ -1 -10.5898 -157.845 2 4 141
1941013S09200 1941 5 SP MM NOT_NAMED 1941-01-14 21:00:00 NR -10.7767 -157.693 main 1609 1609 __________P___ -1 -10.7767 -157.693 2 5 141
1941013S09200 1941 5 SP MM NOT_NAMED 1941-01-15 00:00:00 NR -11.0000 -157.500 main 1625 1625 __________O___ -1 -11.0000 -157.500 2 7 138
1941013S09200 1941 5 SP MM NOT_NAMED 1941-01-15 03:00:00 NR -11.2682 -157.239 main 1651 1651 __________P___ -1 -11.2682 -157.239 2 8 136
1941013S09200 1941 5 SP MM NOT_NAMED 1941-01-15 06:00:00 NR -11.5702 -156.938 main 1677 1675 __________P___ -1 -11.5702 -156.938 2 9 135
1941013S09200 1941 5 SP MM NOT_NAMED 1941-01-15 09:00:00 NR -11.8870 -156.617 main 1704 1704 __________P___ -1 -11.8870 -156.617 2 9 135
1941013S09200 1941 5 SP MM NOT_NAMED 1941-01-15 12:00:00 NR -12.2000 -156.300 main 1731 1731 __________O___ -1 -12.2000 -156.300 2 8 136
1941013S09200 1941 5 SP MM NOT_NAMED 1941-01-15 15:00:00 NR -12.4779 -156.030 main 1760 1759 __________P___ -1 -12.4779 -156.030 2 8 136
1941013S09200 1941 5 SP MM NOT_NAMED 1941-01-15 18:00:00 NR -12.7497 -155.764 main 1779 1779 __________P___ -1 -12.7497 -155.764 2 8 136
1941013S09200 1941 5 SP MM NOT_NAMED 1941-01-15 21:00:00 NR -13.0216 -155.492 main 1809 1808 __________P___ -1 -13.0216 -155.492 2 8 135
1941013S09200 1941 5 SP MM NOT_NAMED 1941-01-16 00:00:00 NR -13.3000 -155.200 main 1839 1839 __________O___ -1 -13.3000 -155.200 2 9 133
1941013S09200 1941 5 SP MM NOT_NAMED 1941-01-16 03:00:00 NR -13.6092 -154.856 main 1869 1869 __________P___ -1 -13.6092 -154.856 2 9 132
1941013S09200 1941 5 SP MM NOT_NAMED 1941-01-16 06:00:00 NR -13.9227 -154.493 main 1911 1911 __________P___ -1 -13.9227 -154.493 2 9 131
1941013S09200 1941 5 SP MM NOT_NAMED 1941-01-16 09:00:00 NR -14.2248 -154.134 main 1953 1953 __________P___ -1 -14.2248 -154.134 2 9 131
1941013S09200 1941 5 SP MM NOT_NAMED 1941-01-16 12:00:00 NR -14.5000 -153.800 main 1985 1985 __________O___ -1 -14.5000 -153.800 2 8 130
1941013S09200 1941 5 SP MM NOT_NAMED 1941-01-16 15:00:00 NR -14.7371 -153.508 main 2018 2018 __________P___ -1 -14.7371 -153.508 2 7 130
1941013S09200 1941 5 SP MM NOT_NAMED 1941-01-16 18:00:00 NR -14.9424 -153.252 main 2040 2040 __________P___ -1 -14.9424 -153.252 2 6 130
1941013S09200 1941 5 SP MM NOT_NAMED 1941-01-16 21:00:00 NR -15.1265 -153.020 main 2072 2072 __________P___ -1 -15.1265 -153.020 2 6 129
1941013S09200 1941 5 SP MM NOT_NAMED 1941-01-17 00:00:00 NR -15.3000 -152.800 main 2095 __________O___ -1 -15.3000 -152.800 2 6 129

デジタル台風データ・検索

IBTrACS Databaseについて

本データベースは、米国NOAAが公開する1842年以降の世界の熱帯低気圧のベストトラックデータアーカイブInternational Best Track Archive for Climate Stewardship (IBTrACS)を、ウェブで閲覧しやすい形式に変換したものです。

最終更新日:2021-10-21